createdAt,value
2022-08-07T06:14:11.795Z,14.60
2022-08-07T06:24:38.657Z,15.63
2022-08-07T06:33:44.452Z,16.10
2022-08-07T06:43:46.493Z,17.65
2022-08-07T06:55:28.082Z,18.04
2022-08-07T07:03:49.974Z,18.13
2022-08-07T07:13:58.695Z,17.54
2022-08-07T07:24:10.324Z,18.11
2022-08-07T07:33:44.702Z,18.54
2022-08-07T07:44:14.475Z,18.60
2022-08-07T07:53:51.382Z,19.14
2022-08-07T08:04:10.835Z,19.25
2022-08-07T08:13:54.906Z,20.11
2022-08-07T08:23:44.593Z,19.53
2022-08-07T08:33:49.745Z,21.27
2022-08-07T08:43:59.081Z,21.69
2022-08-07T08:53:45.863Z,22.81
2022-08-07T09:03:49.325Z,21.89
2022-08-07T09:13:44.765Z,21.92
2022-08-07T09:24:33.476Z,22.54
2022-08-07T09:33:57.072Z,21.58
2022-08-07T09:44:05.272Z,22.63
2022-08-07T09:53:50.083Z,23.08
2022-08-07T10:04:03.587Z,23.70
2022-08-07T10:13:55.623Z,23.00
2022-08-07T10:24:06.264Z,21.56
2022-08-07T10:34:06.855Z,21.27
2022-08-07T10:43:44.795Z,21.37
2022-08-07T10:53:45.110Z,21.62
2022-08-07T11:03:52.988Z,21.68
2022-08-07T11:14:45.762Z,22.52
2022-08-07T11:23:45.471Z,22.83
2022-08-07T11:33:53.469Z,24.12
2022-08-07T11:44:10.561Z,25.74
2022-08-07T11:54:00.697Z,23.39
2022-08-07T12:03:46.282Z,23.51
2022-08-07T12:13:47.834Z,23.58
2022-08-07T12:24:07.236Z,24.25
2022-08-07T12:33:56.709Z,24.13
2022-08-07T12:44:01.995Z,23.93
2022-08-07T12:54:02.908Z,24.90
2022-08-07T13:04:02.554Z,24.93
2022-08-07T13:13:48.873Z,24.88
2022-08-07T13:24:03.850Z,24.79
2022-08-07T13:34:30.402Z,25.05
2022-08-07T13:43:44.848Z,26.22
2022-08-07T13:54:00.826Z,25.40
2022-08-07T14:04:06.668Z,25.16
2022-08-07T14:13:45.155Z,24.29
2022-08-07T14:23:59.932Z,25.21
2022-08-07T14:33:45.458Z,24.60
2022-08-07T14:43:57.492Z,24.39
2022-08-07T14:54:08.916Z,25.09
2022-08-07T15:03:52.793Z,24.83
2022-08-07T15:13:44.947Z,25.25
2022-08-07T15:25:14.459Z,25.29
2022-08-07T15:33:45.043Z,24.45
2022-08-07T15:43:53.425Z,24.84
2022-08-07T15:53:52.976Z,24.51
2022-08-07T16:03:47.526Z,25.24
2022-08-07T16:13:59.754Z,25.51
2022-08-07T16:23:54.826Z,23.80
2022-08-07T16:34:03.122Z,23.76
2022-08-07T16:44:03.997Z,23.25
2022-08-07T16:54:01.942Z,23.03
2022-08-07T17:03:59.539Z,22.36
2022-08-07T17:14:18.554Z,22.73
2022-08-07T17:23:46.123Z,23.33
2022-08-07T17:34:18.322Z,22.98
2022-08-07T17:44:03.170Z,22.69
2022-08-07T17:54:00.228Z,22.49
2022-08-07T18:04:04.110Z,22.22
2022-08-07T18:13:44.986Z,21.94
2022-08-07T18:23:50.888Z,21.65
2022-08-07T18:33:55.247Z,21.13
2022-08-07T18:43:48.790Z,19.70
2022-08-07T18:53:45.126Z,19.18
2022-08-07T19:03:45.187Z,18.45
2022-08-07T19:13:45.086Z,18.26
